sensor_id;sensor_type;location;lat;lon;timestamp;temperature;humidity
19813;DHT22;10066;48.108;11.448;2022-09-03T00:02:05;13.40;99.90
19813;DHT22;10066;48.108;11.448;2022-09-03T00:04:40;13.50;99.90
19813;DHT22;10066;48.108;11.448;2022-09-03T00:07:15;13.50;99.90
19813;DHT22;10066;48.108;11.448;2022-09-03T00:09:46;13.50;99.90
19813;DHT22;10066;48.108;11.448;2022-09-03T00:12:18;13.50;99.90
19813;DHT22;10066;48.108;11.448;2022-09-03T00:14:52;13.50;99.90
19813;DHT22;10066;48.108;11.448;2022-09-03T00:17:24;13.50;99.90
19813;DHT22;10066;48.108;11.448;2022-09-03T00:19:56;13.50;99.90
19813;DHT22;10066;48.108;11.448;2022-09-03T00:22:28;13.50;99.90
19813;DHT22;10066;48.108;11.448;2022-09-03T00:24:57;13.50;99.90
19813;DHT22;10066;48.108;11.448;2022-09-03T00:27:26;13.60;99.90
19813;DHT22;10066;48.108;11.448;2022-09-03T00:29:56;13.60;99.90
19813;DHT22;10066;48.108;11.448;2022-09-03T00:32:28;13.60;99.90
19813;DHT22;10066;48.108;11.448;2022-09-03T00:35:02;13.60;99.90
19813;DHT22;10066;48.108;11.448;2022-09-03T00:37:30;13.60;99.90
19813;DHT22;10066;48.108;11.448;2022-09-03T00:39:58;13.60;99.90
19813;DHT22;10066;48.108;11.448;2022-09-03T00:42:37;13.50;99.90
19813;DHT22;10066;48.108;11.448;2022-09-03T00:45:15;13.50;99.90
19813;DHT22;10066;48.108;11.448;2022-09-03T00:47:56;13.40;99.90
19813;DHT22;10066;48.108;11.448;2022-09-03T00:50:35;13.40;99.90
19813;DHT22;10066;48.108;11.448;2022-09-03T00:53:10;13.30;99.90
19813;DHT22;10066;48.108;11.448;2022-09-03T00:55:47;13.20;99.90
19813;DHT22;10066;48.108;11.448;2022-09-03T00:58:31;13.20;99.90
19813;DHT22;10066;48.108;11.448;2022-09-03T01:01:06;13.10;99.90
19813;DHT22;10066;48.108;11.448;2022-09-03T01:03:42;13.10;99.90
19813;DHT22;10066;48.108;11.448;2022-09-03T01:06:21;13.00;99.90
19813;DHT22;10066;48.108;11.448;2022-09-03T01:09:02;13.00;99.90
19813;DHT22;10066;48.108;11.448;2022-09-03T01:11:41;12.90;99.90
19813;DHT22;10066;48.108;11.448;2022-09-03T01:14:19;12.90;99.90
19813;DHT22;10066;48.108;11.448;2022-09-03T01:16:52;12.80;99.90
19813;DHT22;10066;48.108;11.448;2022-09-03T01:22:50;12.70;99.90
19813;DHT22;10066;48.108;11.448;2022-09-03T01:25:31;12.60;99.90
19813;DHT22;10066;48.108;11.448;2022-09-03T01:28:14;12.60;99.90
19813;DHT22;10066;48.108;11.448;2022-09-03T01:30:49;12.60;99.90
19813;DHT22;10066;48.108;11.448;2022-09-03T01:33:26;12.60;99.90
19813;DHT22;10066;48.108;11.448;2022-09-03T01:35:59;12.50;99.90
19813;DHT22;10066;48.108;11.448;2022-09-03T01:38:33;12.50;99.90
19813;DHT22;10066;48.108;11.448;2022-09-03T01:41:12;12.40;99.90
19813;DHT22;10066;48.108;11.448;2022-09-03T01:44:07;12.40;99.90
19813;DHT22;10066;48.108;11.448;2022-09-03T01:46:42;12.30;99.90
19813;DHT22;10066;48.108;11.448;2022-09-03T01:49:17;12.30;99.90
19813;DHT22;10066;48.108;11.448;2022-09-03T01:51:51;12.20;99.90
19813;DHT22;10066;48.108;11.448;2022-09-03T01:54:37;12.20;99.90
19813;DHT22;10066;48.108;11.448;2022-09-03T01:57:26;12.10;99.90
19813;DHT22;10066;48.108;11.448;2022-09-03T02:00:04;12.10;99.90
19813;DHT22;10066;48.108;11.448;2022-09-03T02:02:32;12.10;99.90
19813;DHT22;10066;48.108;11.448;2022-09-03T02:05:05;12.10;99.90
19813;DHT22;10066;48.108;11.448;2022-09-03T02:07:35;12.00;99.90
19813;DHT22;10066;48.108;11.448;2022-09-03T02:10:04;12.10;99.90
19813;DHT22;10066;48.108;11.448;2022-09-03T02:12:33;12.10;99.90
19813;DHT22;10066;48.108;11.448;2022-09-03T02:15:06;12.20;99.90
19813;DHT22;10066;48.108;11.448;2022-09-03T02:17:36;12.20;99.90
19813;DHT22;10066;48.108;11.448;2022-09-03T02:20:06;12.20;99.90
19813;DHT22;10066;48.108;11.448;2022-09-03T02:22:35;12.20;99.90
19813;DHT22;10066;48.108;11.448;2022-09-03T02:25:02;12.20;99.90
19813;DHT22;10066;48.108;11.448;2022-09-03T02:27:29;12.20;99.90
19813;DHT22;10066;48.108;11.448;2022-09-03T02:29:57;12.20;99.90
19813;DHT22;10066;48.108;11.448;2022-09-03T02:32:26;12.20;99.90
19813;DHT22;10066;48.108;11.448;2022-09-03T02:34:54;12.20;99.90
19813;DHT22;10066;48.108;11.448;2022-09-03T02:37:21;12.20;99.90
19813;DHT22;10066;48.108;11.448;2022-09-03T02:39:48;12.20;99.90
19813;DHT22;10066;48.108;11.448;2022-09-03T02:42:17;12.10;99.90
19813;DHT22;10066;48.108;11.448;2022-09-03T02:44:47;12.10;99.90
19813;DHT22;10066;48.108;11.448;2022-09-03T02:47:14;12.00;99.90
19813;DHT22;10066;48.108;11.448;2022-09-03T02:49:46;12.00;99.90
19813;DHT22;10066;48.108;11.448;2022-09-03T02:52:14;11.90;99.90
19813;DHT22;10066;48.108;11.448;2022-09-03T02:54:41;11.90;99.90
19813;DHT22;10066;48.108;11.448;2022-09-03T02:57:11;11.90;99.90
19813;DHT22;10066;48.108;11.448;2022-09-03T02:59:39;11.90;99.90
19813;DHT22;10066;48.108;11.448;2022-09-03T03:02:08;11.80;99.90
19813;DHT22;10066;48.108;11.448;2022-09-03T03:04:36;11.90;99.90
19813;DHT22;10066;48.108;11.448;2022-09-03T03:07:04;11.80;99.90
19813;DHT22;10066;48.108;11.448;2022-09-03T03:09:32;11.80;99.90
19813;DHT22;10066;48.108;11.448;2022-09-03T03:11:58;11.90;99.90
19813;DHT22;10066;48.108;11.448;2022-09-03T03:14:25;11.70;99.90
19813;DHT22;10066;48.108;11.448;2022-09-03T03:16:53;11.70;99.90
19813;DHT22;10066;48.108;11.448;2022-09-03T03:19:20;11.60;99.90
19813;DHT22;10066;48.108;11.448;2022-09-03T03:21:47;11.60;99.90
19813;DHT22;10066;48.108;11.448;2022-09-03T03:24:15;11.60;99.90
19813;DHT22;10066;48.108;11.448;2022-09-03T03:26:42;11.60;99.90
19813;DHT22;10066;48.108;11.448;2022-09-03T03:29:14;11.50;99.90
19813;DHT22;10066;48.108;11.448;2022-09-03T03:31:41;11.40;99.90
19813;DHT22;10066;48.108;11.448;2022-09-03T03:34:08;11.50;99.90
19813;DHT22;10066;48.108;11.448;2022-09-03T03:36:35;11.60;99.90
19813;DHT22;10066;48.108;11.448;2022-09-03T03:39:02;11.50;99.90
19813;DHT22;10066;48.108;11.448;2022-09-03T03:41:32;11.50;99.90
19813;DHT22;10066;48.108;11.448;2022-09-03T03:44:01;11.50;99.90
19813;DHT22;10066;48.108;11.448;2022-09-03T03:46:30;11.50;99.90
19813;DHT22;10066;48.108;11.448;2022-09-03T03:48:58;11.50;99.90
19813;DHT22;10066;48.108;11.448;2022-09-03T03:51:26;11.40;99.90
19813;DHT22;10066;48.108;11.448;2022-09-03T03:53:54;11.40;99.90
19813;DHT22;10066;48.108;11.448;2022-09-03T03:56:23;11.40;99.90
19813;DHT22;10066;48.108;11.448;2022-09-03T03:58:52;11.40;99.90
19813;DHT22;10066;48.108;11.448;2022-09-03T04:01:21;11.30;99.90
19813;DHT22;10066;48.108;11.448;2022-09-03T04:03:48;11.30;99.90
19813;DHT22;10066;48.108;11.448;2022-09-03T04:06:17;11.20;99.90
19813;DHT22;10066;48.108;11.448;2022-09-03T04:08:45;11.20;99.90
19813;DHT22;10066;48.108;11.448;2022-09-03T04:11:14;11.10;99.90
19813;DHT22;10066;48.108;11.448;2022-09-03T04:13:42;11.10;99.90
19813;DHT22;10066;48.108;11.448;2022-09-03T04:16:13;11.20;99.90
19813;DHT22;10066;48.108;11.448;2022-09-03T04:18:40;11.10;99.90
19813;DHT22;10066;48.108;11.448;2022-09-03T04:21:10;11.10;99.90
19813;DHT22;10066;48.108;11.448;2022-09-03T04:23:38;11.00;99.90
19813;DHT22;10066;48.108;11.448;2022-09-03T04:26:06;11.00;99.90
19813;DHT22;10066;48.108;11.448;2022-09-03T04:28:33;11.10;99.90
19813;DHT22;10066;48.108;11.448;2022-09-03T04:31:01;11.00;99.90
19813;DHT22;10066;48.108;11.448;2022-09-03T04:33:30;11.10;99.90
19813;DHT22;10066;48.108;11.448;2022-09-03T04:36:03;11.10;99.90
19813;DHT22;10066;48.108;11.448;2022-09-03T04:38:31;11.20;99.90
19813;DHT22;10066;48.108;11.448;2022-09-03T04:40:58;11.20;99.90
19813;DHT22;10066;48.108;11.448;2022-09-03T04:43:26;11.30;99.90
19813;DHT22;10066;48.108;11.448;2022-09-03T04:45:57;11.40;99.90
19813;DHT22;10066;48.108;11.448;2022-09-03T04:48:24;11.50;99.90
19813;DHT22;10066;48.108;11.448;2022-09-03T04:50:53;11.50;99.90
19813;DHT22;10066;48.108;11.448;2022-09-03T04:53:21;11.60;99.90
19813;DHT22;10066;48.108;11.448;2022-09-03T04:55:48;11.80;99.90
19813;DHT22;10066;48.108;11.448;2022-09-03T04:58:15;11.90;99.90
19813;DHT22;10066;48.108;11.448;2022-09-03T05:00:43;12.00;99.90
19813;DHT22;10066;48.108;11.448;2022-09-03T05:03:10;12.10;99.90
19813;DHT22;10066;48.108;11.448;2022-09-03T05:05:37;12.20;99.90
19813;DHT22;10066;48.108;11.448;2022-09-03T05:08:05;12.30;99.90
19813;DHT22;10066;48.108;11.448;2022-09-03T05:10:33;12.40;99.90
19813;DHT22;10066;48.108;11.448;2022-09-03T05:13:01;12.50;99.90
19813;DHT22;10066;48.108;11.448;2022-09-03T05:15:29;12.60;99.90
19813;DHT22;10066;48.108;11.448;2022-09-03T05:17:57;12.70;99.90
19813;DHT22;10066;48.108;11.448;2022-09-03T05:20:27;12.80;99.90
19813;DHT22;10066;48.108;11.448;2022-09-03T05:22:54;12.90;99.90
19813;DHT22;10066;48.108;11.448;2022-09-03T05:25:23;13.20;99.90
19813;DHT22;10066;48.108;11.448;2022-09-03T05:27:50;14.40;99.90
19813;DHT22;10066;48.108;11.448;2022-09-03T05:30:18;14.70;99.90
19813;DHT22;10066;48.108;11.448;2022-09-03T05:32:47;15.10;99.90
19813;DHT22;10066;48.108;11.448;2022-09-03T05:35:14;15.20;99.90
19813;DHT22;10066;48.108;11.448;2022-09-03T05:37:41;15.20;99.90
19813;DHT22;10066;48.108;11.448;2022-09-03T05:40:09;15.20;99.90
19813;DHT22;10066;48.108;11.448;2022-09-03T05:42:37;16.10;99.90
19813;DHT22;10066;48.108;11.448;2022-09-03T05:45:06;17.00;99.90
19813;DHT22;10066;48.108;11.448;2022-09-03T05:50:05;18.20;99.90
19813;DHT22;10066;48.108;11.448;2022-09-03T05:52:33;18.60;99.90
19813;DHT22;10066;48.108;11.448;2022-09-03T05:55:01;18.40;99.90
19813;DHT22;10066;48.108;11.448;2022-09-03T05:57:28;18.40;99.90
19813;DHT22;10066;48.108;11.448;2022-09-03T05:59:57;18.20;99.90
19813;DHT22;10066;48.108;11.448;2022-09-03T06:02:24;18.30;99.90
19813;DHT22;10066;48.108;11.448;2022-09-03T06:04:51;18.40;99.90
19813;DHT22;10066;48.108;11.448;2022-09-03T06:07:22;18.40;99.90
19813;DHT22;10066;48.108;11.448;2022-09-03T06:09:48;18.20;99.90
19813;DHT22;10066;48.108;11.448;2022-09-03T06:12:16;18.00;99.90
19813;DHT22;10066;48.108;11.448;2022-09-03T06:14:43;17.80;99.90
19813;DHT22;10066;48.108;11.448;2022-09-03T06:17:11;17.60;99.90
19813;DHT22;10066;48.108;11.448;2022-09-03T06:19:39;17.50;99.90
19813;DHT22;10066;48.108;11.448;2022-09-03T06:22:06;17.50;99.90
19813;DHT22;10066;48.108;11.448;2022-09-03T06:24:33;17.30;99.90
19813;DHT22;10066;48.108;11.448;2022-09-03T06:27:01;17.30;99.90
19813;DHT22;10066;48.108;11.448;2022-09-03T06:29:28;17.30;99.90
19813;DHT22;10066;48.108;11.448;2022-09-03T06:31:55;17.30;99.90
19813;DHT22;10066;48.108;11.448;2022-09-03T06:34:24;17.40;99.90
19813;DHT22;10066;48.108;11.448;2022-09-03T06:36:53;17.40;99.90
19813;DHT22;10066;48.108;11.448;2022-09-03T06:39:20;17.40;99.90
19813;DHT22;10066;48.108;11.448;2022-09-03T06:41:47;17.40;99.90
19813;DHT22;10066;48.108;11.448;2022-09-03T06:44:19;17.40;99.90
19813;DHT22;10066;48.108;11.448;2022-09-03T06:46:46;17.40;99.90
19813;DHT22;10066;48.108;11.448;2022-09-03T06:49:14;17.40;99.90
19813;DHT22;10066;48.108;11.448;2022-09-03T06:51:43;17.30;99.90
19813;DHT22;10066;48.108;11.448;2022-09-03T06:54:11;17.30;99.90
19813;DHT22;10066;48.108;11.448;2022-09-03T06:56:40;17.20;99.90
19813;DHT22;10066;48.108;11.448;2022-09-03T06:59:08;17.20;99.90
19813;DHT22;10066;48.108;11.448;2022-09-03T07:01:36;17.20;99.90
19813;DHT22;10066;48.108;11.448;2022-09-03T07:04:06;17.10;99.90
19813;DHT22;10066;48.108;11.448;2022-09-03T07:06:35;17.10;99.90
19813;DHT22;10066;48.108;11.448;2022-09-03T07:09:05;17.10;99.90
19813;DHT22;10066;48.108;11.448;2022-09-03T07:11:33;17.10;99.90
19813;DHT22;10066;48.108;11.448;2022-09-03T07:14:01;17.10;99.90
19813;DHT22;10066;48.108;11.448;2022-09-03T07:16:31;17.10;99.90
19813;DHT22;10066;48.108;11.448;2022-09-03T07:18:58;17.10;99.90
19813;DHT22;10066;48.108;11.448;2022-09-03T07:21:29;17.10;99.90
19813;DHT22;10066;48.108;11.448;2022-09-03T07:23:56;17.10;99.90
19813;DHT22;10066;48.108;11.448;2022-09-03T07:26:27;17.10;99.90
19813;DHT22;10066;48.108;11.448;2022-09-03T07:28:55;17.10;99.90
19813;DHT22;10066;48.108;11.448;2022-09-03T07:31:24;17.10;99.90
19813;DHT22;10066;48.108;11.448;2022-09-03T07:33:52;17.10;99.90
19813;DHT22;10066;48.108;11.448;2022-09-03T07:36:22;17.10;99.90
19813;DHT22;10066;48.108;11.448;2022-09-03T07:38:50;17.00;99.90
19813;DHT22;10066;48.108;11.448;2022-09-03T07:41:20;16.90;99.90
19813;DHT22;10066;48.108;11.448;2022-09-03T07:43:48;16.90;99.90
19813;DHT22;10066;48.108;11.448;2022-09-03T07:46:18;16.90;99.90
19813;DHT22;10066;48.108;11.448;2022-09-03T07:48:47;16.80;99.90
19813;DHT22;10066;48.108;11.448;2022-09-03T07:51:15;16.70;99.90
19813;DHT22;10066;48.108;11.448;2022-09-03T07:53:43;16.80;99.90
19813;DHT22;10066;48.108;11.448;2022-09-03T07:56:10;16.70;99.90
19813;DHT22;10066;48.108;11.448;2022-09-03T07:58:38;16.70;99.90
19813;DHT22;10066;48.108;11.448;2022-09-03T08:01:09;16.60;99.90
19813;DHT22;10066;48.108;11.448;2022-09-03T08:03:37;16.60;99.90
19813;DHT22;10066;48.108;11.448;2022-09-03T08:06:06;16.60;99.90
19813;DHT22;10066;48.108;11.448;2022-09-03T08:08:35;16.60;99.90
19813;DHT22;10066;48.108;11.448;2022-09-03T08:11:06;16.50;99.90
19813;DHT22;10066;48.108;11.448;2022-09-03T08:13:36;16.50;99.90
19813;DHT22;10066;48.108;11.448;2022-09-03T08:16:04;16.50;99.90
19813;DHT22;10066;48.108;11.448;2022-09-03T08:18:33;16.50;99.90
19813;DHT22;10066;48.108;11.448;2022-09-03T08:21:06;16.50;99.90
19813;DHT22;10066;48.108;11.448;2022-09-03T08:23:36;16.50;99.90
19813;DHT22;10066;48.108;11.448;2022-09-03T08:26:03;16.60;99.90
19813;DHT22;10066;48.108;11.448;2022-09-03T08:28:30;16.70;99.90
19813;DHT22;10066;48.108;11.448;2022-09-03T08:31:03;16.80;99.90
19813;DHT22;10066;48.108;11.448;2022-09-03T08:33:31;16.90;99.90
19813;DHT22;10066;48.108;11.448;2022-09-03T08:36:08;17.00;99.90
19813;DHT22;10066;48.108;11.448;2022-09-03T08:38:37;17.20;99.90
19813;DHT22;10066;48.108;11.448;2022-09-03T08:41:11;17.30;99.90
19813;DHT22;10066;48.108;11.448;2022-09-03T08:43:55;17.60;99.90
19813;DHT22;10066;48.108;11.448;2022-09-03T08:46:36;17.80;99.90
19813;DHT22;10066;48.108;11.448;2022-09-03T08:49:11;18.00;99.90
19813;DHT22;10066;48.108;11.448;2022-09-03T08:51:41;18.20;99.90
19813;DHT22;10066;48.108;11.448;2022-09-03T08:54:09;18.40;99.90
19813;DHT22;10066;48.108;11.448;2022-09-03T08:56:40;18.70;99.90
19813;DHT22;10066;48.108;11.448;2022-09-03T08:59:09;18.90;99.90
19813;DHT22;10066;48.108;11.448;2022-09-03T09:01:44;19.20;99.90
19813;DHT22;10066;48.108;11.448;2022-09-03T09:04:25;19.40;99.90
19813;DHT22;10066;48.108;11.448;2022-09-03T09:06:58;19.80;99.90
19813;DHT22;10066;48.108;11.448;2022-09-03T09:09:34;19.90;99.90
19813;DHT22;10066;48.108;11.448;2022-09-03T09:12:15;20.20;99.90
19813;DHT22;10066;48.108;11.448;2022-09-03T09:14:49;20.30;99.90
19813;DHT22;10066;48.108;11.448;2022-09-03T09:20:14;20.50;99.90
19813;DHT22;10066;48.108;11.448;2022-09-03T09:22:46;20.60;99.90
19813;DHT22;10066;48.108;11.448;2022-09-03T09:25:19;20.60;99.90
19813;DHT22;10066;48.108;11.448;2022-09-03T09:27:50;20.60;99.90
19813;DHT22;10066;48.108;11.448;2022-09-03T09:30:20;20.70;99.90
19813;DHT22;10066;48.108;11.448;2022-09-03T09:32:47;20.80;99.90
19813;DHT22;10066;48.108;11.448;2022-09-03T09:35:17;20.90;99.90
19813;DHT22;10066;48.108;11.448;2022-09-03T09:37:49;21.00;99.90
19813;DHT22;10066;48.108;11.448;2022-09-03T09:40:24;21.10;99.90
19813;DHT22;10066;48.108;11.448;2022-09-03T09:43:02;21.10;99.90
19813;DHT22;10066;48.108;11.448;2022-09-03T09:45:30;21.00;99.90
19813;DHT22;10066;48.108;11.448;2022-09-03T09:47:59;21.10;99.90
19813;DHT22;10066;48.108;11.448;2022-09-03T09:50:28;21.20;99.90
19813;DHT22;10066;48.108;11.448;2022-09-03T09:53:02;21.30;99.90
19813;DHT22;10066;48.108;11.448;2022-09-03T09:55:33;21.40;99.90
19813;DHT22;10066;48.108;11.448;2022-09-03T09:58:06;21.60;99.90
19813;DHT22;10066;48.108;11.448;2022-09-03T10:00:35;21.70;99.90
19813;DHT22;10066;48.108;11.448;2022-09-03T10:03:09;21.80;99.90
19813;DHT22;10066;48.108;11.448;2022-09-03T10:05:39;21.80;99.90
19813;DHT22;10066;48.108;11.448;2022-09-03T10:08:18;21.90;99.90
19813;DHT22;10066;48.108;11.448;2022-09-03T10:10:49;21.90;99.90
19813;DHT22;10066;48.108;11.448;2022-09-03T10:13:18;21.90;99.90
19813;DHT22;10066;48.108;11.448;2022-09-03T10:15:49;22.00;99.90
19813;DHT22;10066;48.108;11.448;2022-09-03T10:18:25;22.00;99.90
19813;DHT22;10066;48.108;11.448;2022-09-03T10:20:59;22.10;99.90
19813;DHT22;10066;48.108;11.448;2022-09-03T10:23:32;22.10;99.90
19813;DHT22;10066;48.108;11.448;2022-09-03T10:26:04;22.20;99.90
19813;DHT22;10066;48.108;11.448;2022-09-03T10:28:33;22.30;99.90
19813;DHT22;10066;48.108;11.448;2022-09-03T10:31:18;22.30;99.90
19813;DHT22;10066;48.108;11.448;2022-09-03T10:33:51;22.40;99.90
19813;DHT22;10066;48.108;11.448;2022-09-03T10:36:25;22.50;99.90
19813;DHT22;10066;48.108;11.448;2022-09-03T10:39:01;22.50;99.90
19813;DHT22;10066;48.108;11.448;2022-09-03T10:41:40;22.60;99.90
19813;DHT22;10066;48.108;11.448;2022-09-03T10:44:24;22.70;99.90
19813;DHT22;10066;48.108;11.448;2022-09-03T10:47:08;22.80;99.90
19813;DHT22;10066;48.108;11.448;2022-09-03T10:49:49;22.90;99.90
19813;DHT22;10066;48.108;11.448;2022-09-03T10:52:26;23.10;99.90
19813;DHT22;10066;48.108;11.448;2022-09-03T10:55:07;23.20;99.90
19813;DHT22;10066;48.108;11.448;2022-09-03T10:57:47;23.30;99.90
19813;DHT22;10066;48.108;11.448;2022-09-03T11:00:16;23.60;99.90
19813;DHT22;10066;48.108;11.448;2022-09-03T11:03:02;23.70;99.90
19813;DHT22;10066;48.108;11.448;2022-09-03T11:05:36;23.70;99.90
19813;DHT22;10066;48.108;11.448;2022-09-03T11:08:09;23.60;99.90
19813;DHT22;10066;48.108;11.448;2022-09-03T11:10:40;23.50;99.90
19813;DHT22;10066;48.108;11.448;2022-09-03T11:13:11;23.50;99.90
19813;DHT22;10066;48.108;11.448;2022-09-03T11:15:43;23.50;99.90
19813;DHT22;10066;48.108;11.448;2022-09-03T11:18:18;23.60;99.90
19813;DHT22;10066;48.108;11.448;2022-09-03T11:20:48;23.60;99.90
19813;DHT22;10066;48.108;11.448;2022-09-03T11:23:18;23.60;99.90
19813;DHT22;10066;48.108;11.448;2022-09-03T11:25:50;23.50;99.90
19813;DHT22;10066;48.108;11.448;2022-09-03T11:28:26;23.60;99.90
19813;DHT22;10066;48.108;11.448;2022-09-03T11:31:12;23.70;99.90
19813;DHT22;10066;48.108;11.448;2022-09-03T11:33:46;23.80;99.90
19813;DHT22;10066;48.108;11.448;2022-09-03T11:36:25;23.90;99.90
19813;DHT22;10066;48.108;11.448;2022-09-03T11:38:55;23.90;99.90
19813;DHT22;10066;48.108;11.448;2022-09-03T11:41:24;24.00;99.90
19813;DHT22;10066;48.108;11.448;2022-09-03T11:43:52;24.00;99.90
19813;DHT22;10066;48.108;11.448;2022-09-03T11:46:29;24.00;99.90
19813;DHT22;10066;48.108;11.448;2022-09-03T11:49:08;24.00;99.90
19813;DHT22;10066;48.108;11.448;2022-09-03T11:51:37;24.00;99.90
19813;DHT22;10066;48.108;11.448;2022-09-03T11:54:24;24.00;99.90
19813;DHT22;10066;48.108;11.448;2022-09-03T11:57:06;24.00;99.90
19813;DHT22;10066;48.108;11.448;2022-09-03T11:59:36;24.10;99.90
19813;DHT22;10066;48.108;11.448;2022-09-03T12:02:12;24.10;99.90
19813;DHT22;10066;48.108;11.448;2022-09-03T12:04:49;24.10;99.90
19813;DHT22;10066;48.108;11.448;2022-09-03T12:07:32;24.10;99.90
19813;DHT22;10066;48.108;11.448;2022-09-03T12:10:18;24.20;99.90
19813;DHT22;10066;48.108;11.448;2022-09-03T12:15:53;24.20;99.90
19813;DHT22;10066;48.108;11.448;2022-09-03T12:18:28;24.20;99.90
19813;DHT22;10066;48.108;11.448;2022-09-03T12:21:02;24.10;99.90
19813;DHT22;10066;48.108;11.448;2022-09-03T12:23:32;24.00;99.90
19813;DHT22;10066;48.108;11.448;2022-09-03T12:26:03;23.90;99.90
19813;DHT22;10066;48.108;11.448;2022-09-03T12:28:36;23.70;99.90
19813;DHT22;10066;48.108;11.448;2022-09-03T12:31:08;23.80;99.90
19813;DHT22;10066;48.108;11.448;2022-09-03T12:33:40;23.70;99.90
19813;DHT22;10066;48.108;11.448;2022-09-03T12:36:08;23.70;99.90
19813;DHT22;10066;48.108;11.448;2022-09-03T12:38:39;23.70;99.90
19813;DHT22;10066;48.108;11.448;2022-09-03T12:41:23;23.60;99.90
19813;DHT22;10066;48.108;11.448;2022-09-03T12:43:53;23.60;99.90
19813;DHT22;10066;48.108;11.448;2022-09-03T12:46:24;23.50;99.90
19813;DHT22;10066;48.108;11.448;2022-09-03T12:48:53;23.60;99.90
19813;DHT22;10066;48.108;11.448;2022-09-03T12:51:21;23.50;99.90
19813;DHT22;10066;48.108;11.448;2022-09-03T12:53:49;23.50;99.90
19813;DHT22;10066;48.108;11.448;2022-09-03T12:56:20;23.50;99.90
19813;DHT22;10066;48.108;11.448;2022-09-03T12:58:51;23.40;99.90
19813;DHT22;10066;48.108;11.448;2022-09-03T13:01:23;23.40;99.90
19813;DHT22;10066;48.108;11.448;2022-09-03T13:03:54;23.40;99.90
19813;DHT22;10066;48.108;11.448;2022-09-03T13:06:25;23.40;99.90
19813;DHT22;10066;48.108;11.448;2022-09-03T13:08:55;23.40;99.90
19813;DHT22;10066;48.108;11.448;2022-09-03T13:11:25;23.40;99.90
19813;DHT22;10066;48.108;11.448;2022-09-03T13:13:54;23.40;99.90
19813;DHT22;10066;48.108;11.448;2022-09-03T13:16:53;23.40;99.90
19813;DHT22;10066;48.108;11.448;2022-09-03T13:19:36;23.50;99.90
19813;DHT22;10066;48.108;11.448;2022-09-03T13:22:10;23.60;99.60
19813;DHT22;10066;48.108;11.448;2022-09-03T13:24:55;23.60;99.80
19813;DHT22;10066;48.108;11.448;2022-09-03T13:27:31;23.60;99.20
19813;DHT22;10066;48.108;11.448;2022-09-03T13:30:03;23.70;98.90
19813;DHT22;10066;48.108;11.448;2022-09-03T13:32:40;23.80;98.50
19813;DHT22;10066;48.108;11.448;2022-09-03T13:35:11;23.80;98.60
19813;DHT22;10066;48.108;11.448;2022-09-03T13:37:44;23.80;99.00
19813;DHT22;10066;48.108;11.448;2022-09-03T13:40:17;23.90;99.40
19813;DHT22;10066;48.108;11.448;2022-09-03T13:42:51;24.00;99.40
19813;DHT22;10066;48.108;11.448;2022-09-03T13:45:28;24.10;98.60
19813;DHT22;10066;48.108;11.448;2022-09-03T13:48:01;24.00;99.20
19813;DHT22;10066;48.108;11.448;2022-09-03T13:50:51;24.00;98.50
19813;DHT22;10066;48.108;11.448;2022-09-03T13:53:28;23.80;98.70
19813;DHT22;10066;48.108;11.448;2022-09-03T13:56:03;23.60;98.00
19813;DHT22;10066;48.108;11.448;2022-09-03T13:58:42;23.60;99.00
19813;DHT22;10066;48.108;11.448;2022-09-03T14:01:17;23.50;99.10
19813;DHT22;10066;48.108;11.448;2022-09-03T14:03:49;23.30;99.90
19813;DHT22;10066;48.108;11.448;2022-09-03T14:06:25;23.20;99.90
19813;DHT22;10066;48.108;11.448;2022-09-03T14:09:05;23.10;99.90
19813;DHT22;10066;48.108;11.448;2022-09-03T14:11:47;23.00;99.90
19813;DHT22;10066;48.108;11.448;2022-09-03T14:14:27;23.00;99.90
19813;DHT22;10066;48.108;11.448;2022-09-03T14:17:04;22.90;99.90
19813;DHT22;10066;48.108;11.448;2022-09-03T14:19:36;22.70;99.90
19813;DHT22;10066;48.108;11.448;2022-09-03T14:22:08;22.70;99.90
19813;DHT22;10066;48.108;11.448;2022-09-03T14:24:44;22.60;99.90
19813;DHT22;10066;48.108;11.448;2022-09-03T14:27:20;22.50;99.90
19813;DHT22;10066;48.108;11.448;2022-09-03T14:29:53;22.40;99.90
19813;DHT22;10066;48.108;11.448;2022-09-03T14:32:31;22.40;99.90
19813;DHT22;10066;48.108;11.448;2022-09-03T14:35:32;22.30;99.90
19813;DHT22;10066;48.108;11.448;2022-09-03T14:38:38;22.30;99.90
19813;DHT22;10066;48.108;11.448;2022-09-03T14:47:10;20.60;99.90
19813;DHT22;10066;48.108;11.448;2022-09-03T14:52:37;18.00;99.90
19813;DHT22;10066;48.108;11.448;2022-09-03T14:55:22;17.20;99.90
19813;DHT22;10066;48.108;11.448;2022-09-03T14:58:06;16.50;99.90
19813;DHT22;10066;48.108;11.448;2022-09-03T15:00:48;16.20;99.90
19813;DHT22;10066;48.108;11.448;2022-09-03T15:03:38;16.10;99.90
19813;DHT22;10066;48.108;11.448;2022-09-03T15:06:27;15.90;99.90
19813;DHT22;10066;48.108;11.448;2022-09-03T15:09:17;15.80;99.90
19813;DHT22;10066;48.108;11.448;2022-09-03T15:11:50;15.70;99.90
19813;DHT22;10066;48.108;11.448;2022-09-03T15:14:23;15.70;99.90
19813;DHT22;10066;48.108;11.448;2022-09-03T15:16:57;15.60;99.90
19813;DHT22;10066;48.108;11.448;2022-09-03T15:19:39;15.50;99.90
19813;DHT22;10066;48.108;11.448;2022-09-03T15:22:15;15.40;99.90
19813;DHT22;10066;48.108;11.448;2022-09-03T15:24:52;15.40;99.90
19813;DHT22;10066;48.108;11.448;2022-09-03T15:27:36;15.40;99.90
19813;DHT22;10066;48.108;11.448;2022-09-03T15:30:11;15.40;99.90
19813;DHT22;10066;48.108;11.448;2022-09-03T15:32:48;15.40;99.90
19813;DHT22;10066;48.108;11.448;2022-09-03T15:35:31;15.40;99.90
19813;DHT22;10066;48.108;11.448;2022-09-03T15:38:02;15.40;99.90
19813;DHT22;10066;48.108;11.448;2022-09-03T15:40:32;15.40;99.90
19813;DHT22;10066;48.108;11.448;2022-09-03T15:43:05;15.30;99.90
19813;DHT22;10066;48.108;11.448;2022-09-03T15:45:37;15.30;99.90
19813;DHT22;10066;48.108;11.448;2022-09-03T15:48:11;15.30;99.90
19813;DHT22;10066;48.108;11.448;2022-09-03T15:50:51;15.20;99.90
19813;DHT22;10066;48.108;11.448;2022-09-03T15:53:28;15.10;99.90
19813;DHT22;10066;48.108;11.448;2022-09-03T15:56:09;15.10;99.90
19813;DHT22;10066;48.108;11.448;2022-09-03T15:58:43;15.10;99.90
19813;DHT22;10066;48.108;11.448;2022-09-03T16:01:20;15.10;99.90
19813;DHT22;10066;48.108;11.448;2022-09-03T16:03:57;15.10;99.90
19813;DHT22;10066;48.108;11.448;2022-09-03T16:06:32;15.10;99.90
19813;DHT22;10066;48.108;11.448;2022-09-03T16:09:09;15.10;99.90